createdAt,value
2018-12-02T00:00:33.021Z,19.50
2018-12-02T00:05:35.598Z,15.97
2018-12-02T00:10:37.711Z,14.00
2018-12-02T00:15:40.487Z,17.13
2018-12-02T00:20:42.636Z,17.90
2018-12-02T00:25:44.771Z,15.83
2018-12-02T00:30:47.059Z,15.13
2018-12-02T00:35:49.198Z,15.70
2018-12-02T00:40:51.345Z,22.67
2018-12-02T00:45:53.461Z,22.10
2018-12-02T00:50:55.593Z,22.13
2018-12-02T00:55:57.607Z,21.33
2018-12-02T01:00:59.758Z,19.00
2018-12-02T01:06:01.867Z,26.80
2018-12-02T01:11:04.033Z,16.90
2018-12-02T01:16:06.179Z,24.60
2018-12-02T01:21:08.303Z,19.87
2018-12-02T01:26:10.437Z,25.53
2018-12-02T01:31:12.570Z,16.67
2018-12-02T01:36:14.707Z,28.80
2018-12-02T01:41:16.847Z,21.30
2018-12-02T01:46:18.957Z,24.17
2018-12-02T01:51:21.071Z,24.43
2018-12-02T01:56:23.212Z,24.93
2018-12-02T02:01:25.314Z,24.60
2018-12-02T02:06:27.453Z,22.63
2018-12-02T02:11:29.548Z,32.17
2018-12-02T02:16:31.705Z,20.67
2018-12-02T02:21:33.804Z,34.50
2018-12-02T02:26:35.928Z,35.63
2018-12-02T02:31:38.061Z,32.03
2018-12-02T02:36:40.198Z,39.20
2018-12-02T02:41:42.325Z,33.73
2018-12-02T02:46:44.436Z,30.23
2018-12-02T02:51:46.550Z,30.93
2018-12-02T02:56:48.702Z,33.67
2018-12-02T03:01:50.859Z,29.90
2018-12-02T03:06:52.976Z,29.97
2018-12-02T03:11:55.090Z,32.40
2018-12-02T03:16:57.241Z,35.93
2018-12-02T03:21:59.325Z,31.27
2018-12-02T03:27:01.431Z,38.63
2018-12-02T03:32:03.561Z,35.67
2018-12-02T03:37:05.699Z,31.90
2018-12-02T03:42:07.799Z,26.80
2018-12-02T03:47:09.948Z,28.70
2018-12-02T03:52:12.048Z,26.93
2018-12-02T03:57:14.178Z,37.23
2018-12-02T04:02:16.273Z,34.50
2018-12-02T04:07:18.398Z,34.47
2018-12-02T04:12:20.484Z,41.40
2018-12-02T04:17:23.306Z,35.27
2018-12-02T04:22:25.392Z,38.27
2018-12-02T04:27:27.491Z,39.37
2018-12-02T04:32:29.572Z,36.93
2018-12-02T04:37:31.703Z,33.50
2018-12-02T04:42:33.794Z,32.77
2018-12-02T04:47:35.930Z,37.00
2018-12-02T04:52:38.060Z,40.63
2018-12-02T04:57:40.183Z,45.77
2018-12-02T05:02:43.135Z,47.33
2018-12-02T05:07:45.221Z,43.53
2018-12-02T05:12:47.614Z,34.00
2018-12-02T05:17:49.745Z,37.20
2018-12-02T05:22:51.841Z,45.37
2018-12-02T05:27:53.983Z,32.43
2018-12-02T05:32:56.065Z,33.07
2018-12-02T05:37:58.161Z,34.27
2018-12-02T05:43:00.271Z,31.77
2018-12-02T05:48:02.379Z,27.27
2018-12-02T05:53:04.546Z,29.33
2018-12-02T05:58:06.857Z,31.63
2018-12-02T06:03:08.989Z,35.77
2018-12-02T06:08:11.124Z,49.07
2018-12-02T06:13:13.217Z,33.20
2018-12-02T06:18:15.343Z,27.17
2018-12-02T06:23:17.468Z,25.10
2018-12-02T06:28:19.580Z,25.07
2018-12-02T06:33:21.681Z,25.23
2018-12-02T06:38:23.800Z,26.90
2018-12-02T06:43:25.895Z,23.77
2018-12-02T06:48:27.994Z,24.60
2018-12-02T06:53:30.118Z,29.30
2018-12-02T06:58:43.733Z,22.97
2018-12-02T07:03:59.822Z,24.63
2018-12-02T07:09:01.964Z,35.63
2018-12-02T07:14:04.319Z,29.37
2018-12-02T07:19:11.273Z,35.23
2018-12-02T07:24:16.293Z,25.40
2018-12-02T07:29:18.413Z,24.73
2018-12-02T07:34:20.507Z,24.20
2018-12-02T07:39:41.690Z,23.47
2018-12-02T07:44:43.838Z,18.20
2018-12-02T07:49:45.945Z,23.97
2018-12-02T07:54:48.095Z,24.60
2018-12-02T07:59:50.210Z,22.27
2018-12-02T08:04:52.324Z,20.10
2018-12-02T08:09:54.440Z,17.23
2018-12-02T08:14:56.580Z,18.80
2018-12-02T08:19:58.728Z,16.77
2018-12-02T08:25:00.852Z,15.20
2018-12-02T08:30:03.267Z,16.97
2018-12-02T08:35:06.465Z,19.97
2018-12-02T08:40:09.982Z,25.57
2018-12-02T08:45:14.759Z,17.43
2018-12-02T08:50:18.878Z,18.57
2018-12-02T08:55:21.151Z,16.80
2018-12-02T09:00:23.297Z,19.10
2018-12-02T09:05:25.413Z,19.50
2018-12-02T09:10:28.625Z,17.40
2018-12-02T09:15:30.756Z,15.17
2018-12-02T09:20:34.200Z,21.60
2018-12-02T09:25:36.377Z,16.80
2018-12-02T09:30:38.571Z,17.10
2018-12-02T09:35:40.726Z,19.90
2018-12-02T09:40:42.836Z,17.97
2018-12-02T09:45:46.100Z,17.13
2018-12-02T09:50:48.384Z,15.27
2018-12-02T09:55:50.502Z,17.17
2018-12-02T10:00:53.761Z,16.87
2018-12-02T10:05:55.888Z,22.53
2018-12-02T10:10:58.019Z,15.83
2018-12-02T10:16:00.971Z,21.67
2018-12-02T10:21:04.057Z,15.73
2018-12-02T10:26:06.245Z,13.40
2018-12-02T10:31:08.386Z,15.80
2018-12-02T10:36:10.510Z,14.20
2018-12-02T10:41:12.636Z,17.17
2018-12-02T10:46:14.763Z,16.23
2018-12-02T10:51:16.901Z,14.53
2018-12-02T10:56:19.109Z,17.07
2018-12-02T11:01:25.864Z,13.83
2018-12-02T11:06:27.996Z,11.43
2018-12-02T11:11:30.125Z,16.27
2018-12-02T11:16:32.288Z,12.63
2018-12-02T11:21:34.459Z,16.03
2018-12-02T11:26:36.608Z,12.93
2018-12-02T11:31:38.786Z,17.73
2018-12-02T11:36:40.960Z,13.77
2018-12-02T11:41:43.111Z,11.30
2018-12-02T11:46:45.276Z,12.70
2018-12-02T11:51:47.434Z,12.73
2018-12-02T11:56:49.671Z,11.73
2018-12-02T12:01:52.299Z,12.60
2018-12-02T12:06:54.490Z,11.33
2018-12-02T12:11:56.655Z,13.50
2018-12-02T12:16:58.840Z,13.43
2018-12-02T12:22:01.086Z,13.00
2018-12-02T12:27:03.280Z,12.80
2018-12-02T12:32:05.517Z,16.80
2018-12-02T12:37:07.719Z,13.27
2018-12-02T12:42:09.934Z,18.00
2018-12-02T12:47:12.073Z,13.53
2018-12-02T12:52:14.237Z,12.83
2018-12-02T12:57:16.471Z,14.93
2018-12-02T13:02:18.637Z,16.47
2018-12-02T13:07:20.759Z,12.60
2018-12-02T13:12:22.952Z,20.80
2018-12-02T13:17:25.122Z,10.77
2018-12-02T13:22:27.317Z,13.10
2018-12-02T13:27:29.460Z,14.53
2018-12-02T13:32:31.668Z,11.87
2018-12-02T13:37:33.873Z,16.97
2018-12-02T13:42:36.084Z,13.60
2018-12-02T13:47:38.246Z,12.83
2018-12-02T13:52:40.458Z,12.70
2018-12-02T13:57:42.735Z,15.43
2018-12-02T14:02:46.162Z,11.33
2018-12-02T14:07:48.316Z,14.20
2018-12-02T14:12:54.735Z,12.43
2018-12-02T14:18:01.752Z,11.27
2018-12-02T14:23:04.028Z,9.73
2018-12-02T14:28:07.013Z,10.50
2018-12-02T14:33:09.179Z,10.70
2018-12-02T14:38:11.342Z,13.10
2018-12-02T14:43:13.496Z,12.70
2018-12-02T14:48:15.668Z,13.60
2018-12-02T14:53:17.869Z,13.98
2018-12-02T14:58:20.069Z,15.00
2018-12-02T15:03:22.279Z,13.47
2018-12-02T15:08:24.445Z,12.43
2018-12-02T15:13:26.607Z,14.40
2018-12-02T15:18:28.775Z,12.97
2018-12-02T15:23:30.987Z,11.20
2018-12-02T15:28:33.175Z,11.00
2018-12-02T15:33:35.335Z,14.43
2018-12-02T15:38:37.465Z,13.97
2018-12-02T15:43:39.610Z,12.73
2018-12-02T15:48:41.784Z,19.33
2018-12-02T15:53:43.965Z,17.55
2018-12-02T15:58:46.979Z,13.93
2018-12-02T16:03:49.139Z,17.90
2018-12-02T16:08:51.322Z,20.03
2018-12-02T16:13:54.344Z,19.20
2018-12-02T16:18:56.497Z,17.30
2018-12-02T16:23:58.681Z,16.70
2018-12-02T16:29:00.832Z,22.60
2018-12-02T16:34:03.026Z,31.30
2018-12-02T16:39:08.083Z,32.40
2018-12-02T16:44:10.277Z,22.40
2018-12-02T16:49:12.462Z,23.73
2018-12-02T16:54:14.673Z,31.40
2018-12-02T16:59:23.132Z,22.30
2018-12-02T17:04:25.335Z,14.20
2018-12-02T17:09:27.505Z,17.03
2018-12-02T17:14:29.877Z,10.70
2018-12-02T17:19:32.076Z,10.40
2018-12-02T17:24:34.311Z,7.33
2018-12-02T17:29:41.353Z,9.60
2018-12-02T17:34:38.799Z,11.97
2018-12-02T17:39:44.245Z,11.83
2018-12-02T17:44:46.470Z,11.87
2018-12-02T17:49:48.705Z,8.70
2018-12-02T17:54:50.900Z,18.33
2018-12-02T17:59:53.093Z,13.30
2018-12-02T18:04:55.411Z,9.10
2018-12-02T18:09:57.735Z,11.53
2018-12-02T18:15:00.048Z,17.20
2018-12-02T18:20:02.714Z,7.53
2018-12-02T18:25:08.433Z,14.07
2018-12-02T18:30:17.943Z,17.70
2018-12-02T18:35:22.887Z,16.60
2018-12-02T18:40:26.076Z,14.17
2018-12-02T18:45:29.906Z,23.00
2018-12-02T18:50:32.522Z,21.53
2018-12-02T18:55:37.040Z,16.50
2018-12-02T19:00:46.982Z,14.93
2018-12-02T19:05:52.529Z,20.30
2018-12-02T19:10:58.523Z,15.53
2018-12-02T19:21:38.476Z,33.20
2018-12-02T19:26:44.721Z,20.43
2018-12-02T19:31:52.228Z,10.30
2018-12-02T19:37:01.564Z,12.37
2018-12-02T19:42:07.715Z,8.03
2018-12-02T19:47:13.917Z,15.30
2018-12-02T19:52:20.198Z,12.93
2018-12-02T19:57:27.036Z,12.27
2018-12-02T20:02:32.398Z,13.13
2018-12-02T20:07:38.663Z,16.80
2018-12-02T20:12:44.442Z,21.50
2018-12-02T20:17:50.275Z,14.50
2018-12-02T20:22:56.044Z,21.80
2018-12-02T20:28:02.033Z,18.60
2018-12-02T20:33:07.399Z,22.00
2018-12-02T20:38:13.744Z,26.37
2018-12-02T20:43:20.360Z,17.57
2018-12-02T20:48:25.348Z,24.07
2018-12-02T20:53:31.317Z,31.63
2018-12-02T20:58:35.856Z,24.63
2018-12-02T21:03:42.616Z,25.03
2018-12-02T21:08:47.532Z,27.67
2018-12-02T21:13:51.811Z,23.77
2018-12-02T21:18:54.503Z,23.73
2018-12-02T21:23:57.217Z,31.70
2018-12-02T21:28:59.604Z,32.33
2018-12-02T21:34:01.852Z,45.33
2018-12-02T21:39:07.709Z,33.63
2018-12-02T21:44:09.871Z,34.13
2018-12-02T21:49:12.060Z,30.93
2018-12-02T21:54:14.213Z,35.80
2018-12-02T21:59:16.386Z,31.97
2018-12-02T22:04:18.584Z,29.07
2018-12-02T22:09:22.128Z,35.53
2018-12-02T22:14:24.457Z,20.17
2018-12-02T22:19:26.638Z,16.50
2018-12-02T22:24:28.834Z,24.33
2018-12-02T22:29:30.986Z,19.90
2018-12-02T22:34:33.121Z,16.70
2018-12-02T22:39:35.245Z,15.08
2018-12-02T22:44:37.380Z,22.20
2018-12-02T22:49:39.553Z,23.33
2018-12-02T22:54:41.735Z,21.03
2018-12-02T22:59:43.862Z,21.93
2018-12-02T23:04:45.982Z,19.03
2018-12-02T23:09:48.105Z,27.00
2018-12-02T23:14:50.237Z,29.37
2018-12-02T23:19:52.450Z,28.00
2018-12-02T23:24:54.556Z,51.90
2018-12-02T23:29:56.710Z,29.83
2018-12-02T23:34:58.844Z,25.77
2018-12-02T23:40:00.962Z,32.90
2018-12-02T23:45:03.612Z,29.30
2018-12-02T23:50:09.835Z,27.83
2018-12-02T23:55:13.077Z,28.67
